Time;durP1;ratioP1;P1;durP2;ratioP2;P2;SDS_P1;SDS_P2;PMS_P1;PMS_P2;Temp;Humidity;BMP_temperature;BMP_pressure;BME280_temperature;BME280_humidity;BME280_pressure;Samples;Min_cycle;Max_cycle;Signal;HPM_P1;HPM_P2
2024/01/28 00:00:05;;;;;;;;;1553.00;1552.00;;;;;19.10;50.58;102571.80;34594;1252;21028;-73
2024/01/28 00:00:52;;;;;;;;;2411.00;2411.00;;;;;19.10;50.52;102570.24;34531;1267;19656;-73
2024/01/28 00:02:00;;;;;;;;;2362.25;2362.25;;;;;19.11;50.37;102569.79;34594;1267;22320;-72
2024/01/28 00:02:47;;;;;;;;;1822.00;1822.00;;;;;19.10;50.62;102566.99;34513;1251;21215;-72
2024/01/28 00:03:35;;;;;;;;;1383.33;1383.33;;;;;19.09;50.37;102568.33;34592;1267;22505;-72
2024/01/28 00:04:22;;;;;;;;;2076.00;2076.00;;;;;19.09;50.36;102569.08;34528;1259;19799;-72
2024/01/28 00:05:09;;;;;;;;;2076.00;2076.00;;;;;19.07;50.59;102573.42;34569;1255;21123;-72
2024/01/28 00:05:57;;;;;;;;;2075.00;2075.00;;;;;19.07;50.49;102567.71;34534;1267;21047;-72
2024/01/28 00:06:44;;;;;;;;;2242.33;2242.33;;;;;19.07;50.60;102564.45;34562;1267;21039;-73
2024/01/28 00:07:32;;;;;;;;;2076.00;2076.00;;;;;19.07;50.45;102571.84;34545;1267;19680;-74
2024/01/28 00:08:19;;;;;;;;;2072.33;2072.33;;;;;19.06;50.59;102569.01;34584;1251;19620;-74
2024/01/28 00:09:07;;;;;;;;;2076.50;2076.50;;;;;19.05;50.61;102567.84;34558;1267;21030;-74
2024/01/28 00:09:54;;;;;;;;;2076.00;2076.00;;;;;19.05;50.71;102568.42;34584;1267;19546;-73
2024/01/28 00:10:41;;;;;;;;;2070.00;2068.00;;;;;19.04;50.56;102568.13;34540;1267;21517;-73
2024/01/28 00:11:29;;;;;;;;;2585.00;2585.00;;;;;19.04;50.70;102569.27;34593;1267;19669;-73
2024/01/28 00:12:16;;;;;;;;;2239.00;2239.00;;;;;19.03;50.68;102567.52;34562;1259;19834;-74
2024/01/28 00:13:04;;;;;;;;;2585.00;2585.00;;;;;19.03;50.68;102567.67;34605;1267;19685;-74
2024/01/28 00:13:51;;;;;;;;;2073.00;2073.00;;;;;19.03;50.75;102566.05;34544;1267;21364;-73
2024/01/28 00:14:39;;;;;;;;;2076.00;2076.00;;;;;19.03;50.83;102567.35;34617;1267;19677;-73
2024/01/28 00:15:26;;;;;;;;;2069.67;2069.67;;;;;19.02;50.54;102568.73;34566;1259;19770;-74
2024/01/28 00:16:14;;;;;;;;;2577.00;2577.00;;;;;19.00;50.73;102567.73;34588;1267;20926;-73
2024/01/28 00:17:01;;;;;;;;;2063.00;2063.00;;;;;19.00;50.90;102569.32;34553;1267;20045;-74
2024/01/28 00:17:48;;;;;;;;;2070.00;2070.00;;;;;18.99;50.94;102566.15;34586;1267;20874;-74
2024/01/28 00:18:36;;;;;;;;;2073.25;2073.25;;;;;18.99;51.02;102568.91;34564;1267;20994;-72
2024/01/28 00:19:23;;;;;;;;;1814.00;1814.00;;;;;18.99;51.15;102567.98;34616;1267;19716;-74
2024/01/28 00:20:11;;;;;;;;;2063.00;2063.00;;;;;18.99;51.22;102571.58;34587;1253;21203;-73
2024/01/28 00:20:58;;;;;;;;;2070.00;2070.00;;;;;19.00;51.16;102567.61;34581;1267;21029;-74
2024/01/28 00:21:46;;;;;;;;;2073.00;2073.00;;;;;18.99;51.21;102565.77;34588;1267;20994;-74
2024/01/28 00:22:33;;;;;;;;;2063.50;2063.50;;;;;18.99;51.21;102568.33;34527;1259;21035;-74
2024/01/28 00:23:20;;;;;;;;;2070.00;2070.00;;;;;18.98;51.24;102564.61;34603;1267;19942;-73
2024/01/28 00:24:08;;;;;;;;;2585.00;2585.00;;;;;18.98;51.10;102562.48;34519;1267;21015;-74
2024/01/28 00:24:55;;;;;;;;;2073.25;2073.25;;;;;18.98;51.20;102561.23;34610;1252;21273;-74
2024/01/28 00:25:43;;;;;;;;;2076.50;2076.50;;;;;18.98;51.22;102556.25;34517;1267;20922;-74
2024/01/28 00:26:30;;;;;;;;;1728.33;1728.33;;;;;18.98;51.29;102557.54;34606;1267;21015;-73
2024/01/28 00:27:17;;;;;;;;;2071.50;2071.50;;;;;18.99;51.30;102559.84;34514;1267;20993;-74
2024/01/28 00:28:05;;;;;;;;;2071.50;2071.50;;;;;18.98;51.19;102561.89;34624;1267;21494;-74
2024/01/28 00:28:52;;;;;;;;;2585.00;2585.00;;;;;18.99;51.28;102561.68;34534;1267;21338;-74
2024/01/28 00:29:40;;;;;;;;;1550.00;1550.00;;;;;18.98;51.41;102561.52;34625;1267;19668;-74
2024/01/28 00:30:32;;;;;;;;;2070.00;2070.00;;;;;18.99;51.40;102565.11;34516;1267;20998;-74
2024/01/28 00:31:19;;;;;;;;;2076.00;2076.00;;;;;18.98;51.33;102564.06;34583;1267;19706;-73
2024/01/28 00:32:06;;;;;;;;;2326.00;2326.00;;;;;18.98;51.36;102562.98;34569;1267;20049;-73
2024/01/28 00:32:54;;;;;;;;;1553.00;1553.00;;;;;18.98;51.41;102563.35;34621;1267;21141;-73
2024/01/28 00:33:41;;;;;;;;;2070.00;2070.00;;;;;18.98;51.19;102563.73;34566;1267;21336;-73
2024/01/28 00:34:29;;;;;;;;;2070.00;2070.00;;;;;18.98;51.39;102563.39;34526;1259;21689;-73
2024/01/28 00:35:16;;;;;;;;;2068.50;2068.50;;;;;18.98;51.38;102566.23;34567;1267;19718;-73
2024/01/28 00:36:03;;;;;;;;;2068.00;2068.00;;;;;18.98;51.19;102565.19;34519;1267;21373;-73
2024/01/28 00:36:51;;;;;;;;;2068.00;2068.00;;;;;18.98;51.51;102567.31;34567;1267;20907;-73
2024/01/28 00:37:38;;;;;;;;;2070.00;2070.00;;;;;18.98;51.46;102568.83;34534;1267;19653;-73
2024/01/28 00:38:31;;;;;;;;;2593.00;2593.00;;;;;18.98;51.58;102569.75;34573;1267;20125;-74
2024/01/28 00:39:18;;;;;;;;;1556.33;1556.33;;;;;18.98;51.29;102567.40;34543;1259;19807;-74
2024/01/28 00:40:05;;;;;;;;;1898.33;1898.33;;;;;18.98;51.24;102572.96;34594;1267;19903;-73
2024/01/28 00:40:53;;;;;;;;;2081.00;2081.00;;;;;18.98;51.44;102571.16;34531;1267;19829;-72
2024/01/28 00:41:40;;;;;;;;;2201.25;2201.25;;;;;18.97;51.35;102572.33;34590;1267;20909;-73
2024/01/28 00:42:28;;;;;;;;;2063.00;2063.00;;;;;18.97;51.30;102570.91;34517;1267;20968;-73
2024/01/28 00:43:15;;;;;;;;;1553.00;1553.00;;;;;18.97;51.40;102572.75;34599;1267;19660;-73
2024/01/28 00:44:03;;;;;;;;;2322.50;2322.50;;;;;18.97;51.56;102573.42;34509;1267;21223;-73
2024/01/28 00:44:50;;;;;;;;;2068.00;2068.00;;;;;18.98;51.32;102571.59;34600;1267;19657;-73
2024/01/28 00:45:38;;;;;;;;;2068.00;2068.00;;;;;18.97;51.29;102573.30;34528;1267;19676;-73
2024/01/28 00:46:25;;;;;;;;;1294.50;1294.50;;;;;18.97;51.32;102577.10;34595;1267;19704;-72
2024/01/28 00:47:13;;;;;;;;;1805.00;1805.00;;;;;18.97;51.35;102574.67;34492;1259;19649;-73
2024/01/28 00:48:00;;;;;;;;;2239.33;2239.33;;;;;18.97;51.37;102573.29;34565;1267;21016;-73
2024/01/28 00:48:48;;;;;;;;;1809.00;1809.00;;;;;18.97;51.35;102575.48;34529;1253;22397;-73
2024/01/28 00:49:35;;;;;;;;;1808.00;1808.00;;;;;18.96;51.23;102578.48;34613;1251;20888;-73
2024/01/28 00:50:22;;;;;;;;;1808.00;1808.00;;;;;18.97;51.32;102577.48;34537;1252;21142;-73
2024/01/28 00:51:10;;;;;;;;;2334.50;2334.50;;;;;18.97;51.37;102575.52;34616;1267;19845;-74
2024/01/28 00:51:57;;;;;;;;;1810.75;1810.75;;;;;18.98;51.49;102580.82;34522;1267;19827;-73
2024/01/28 00:52:45;;;;;;;;;1557.00;1557.00;;;;;18.96;51.25;102580.23;34610;1267;19641;-73
2024/01/28 00:53:33;;;;;;;;;1040.00;1040.00;;;;;18.97;51.10;102580.57;34533;1267;21274;-73
2024/01/28 00:54:20;;;;;;;;;1553.00;1553.00;;;;;18.96;51.29;102583.55;34565;1267;20994;-73
2024/01/28 00:55:08;;;;;;;;;1555.00;1555.00;;;;;18.96;51.30;102581.20;34531;1251;21310;-73
2024/01/28 00:55:55;;;;;;;;;2063.00;2063.00;;;;;18.96;51.42;102585.50;34586;1267;21020;-73
2024/01/28 00:56:43;;;;;;;;;1809.75;1809.75;;;;;18.97;51.25;102587.84;34524;1253;21205;-73
2024/01/28 00:57:30;;;;;;;;;1899.00;1899.00;;;;;18.97;51.18;102588.34;34600;1267;20896;-73
2024/01/28 00:58:18;;;;;;;;;1895.33;1895.33;;;;;18.97;51.50;102587.46;34550;1252;21261;-73
2024/01/28 00:59:06;;;;;;;;;1560.00;1560.00;;;;;18.96;51.49;102587.71;34597;1267;20997;-73
2024/01/28 00:59:53;;;;;;;;;2063.00;2063.00;;;;;18.96;51.33;102586.30;34522;1251;21669;-72
2024/01/28 01:00:41;;;;;;;;;1897.67;1897.67;;;;;18.97;51.39;102594.02;34600;1267;19664;-73
2024/01/28 01:01:28;;;;;;;;;1560.00;1560.00;;;;;18.96;51.35;102593.20;34563;1252;21373;-73
2024/01/28 01:02:16;;;;;;;;;2076.00;2076.00;;;;;18.96;51.30;102594.95;34577;1251;19618;-73
2024/01/28 01:03:03;;;;;;;;;1732.00;1732.00;;;;;18.96;51.29;102597.33;34521;1267;20985;-73
2024/01/28 01:03:51;;;;;;;;;1812.50;1812.50;;;;;18.96;51.47;102598.79;34590;1267;22300;-73
2024/01/28 01:04:38;;;;;;;;;1812.50;1812.50;;;;;18.96;51.43;102598.04;34516;1267;19630;-73
2024/01/28 01:05:26;;;;;;;;;1818.00;1817.00;;;;;18.96;51.44;102600.74;34588;1267;20897;-72
2024/01/28 01:06:13;;;;;;;;;1560.00;1560.00;;;;;18.95;51.50;102598.71;34538;1252;21110;-72
2024/01/28 01:07:00;;;;;;;;;1818.00;1818.00;;;;;18.95;51.46;102599.41;34613;1267;19650;-73
2024/01/28 01:07:48;;;;;;;;;1815.50;1815.50;;;;;18.95;51.35;102597.08;34548;1251;21186;-73
2024/01/28 01:08:35;;;;;;;;;1728.33;1728.33;;;;;18.95;51.28;102600.16;34559;1267;20790;-73
2024/01/28 01:09:23;;;;;;;;;1560.00;1560.00;;;;;18.95;51.36;102600.55;34528;1253;21126;-73
2024/01/28 01:10:10;;;;;;;;;1560.00;1560.00;;;;;18.95;51.30;102601.17;34511;1267;22112;-72
2024/01/28 01:10:58;;;;;;;;;1560.00;1560.00;;;;;18.94;51.30;102602.67;34531;1253;21465;-73
2024/01/28 01:11:45;;;;;;;;;2076.00;2076.00;;;;;18.94;51.24;102599.75;34529;1267;19704;-73
2024/01/28 01:12:33;;;;;;;;;1558.00;1558.00;;;;;18.95;50.97;102601.88;34530;1259;19935;-73
2024/01/28 01:13:20;;;;;;;;;1559.50;1559.50;;;;;18.95;50.94;102602.52;34526;1267;22130;-73
2024/01/28 01:14:07;;;;;;;;;2076.00;2076.00;;;;;18.95;50.74;102604.68;34526;1251;22406;-72
2024/01/28 01:14:55;;;;;;;;;1042.50;1042.50;;;;;18.96;50.60;102603.55;34534;1267;21013;-73
2024/01/28 01:15:42;;;;;;;;;2337.00;2337.00;;;;;18.96;50.45;102607.64;34529;1267;19813;-73
2024/01/28 01:16:30;;;;;;;;;1561.00;1561.00;;;;;18.97;50.41;102607.90;34568;1267;19678;-73
2024/01/28 01:17:17;;;;;;;;;2076.00;2076.00;;;;;18.99;50.11;102608.94;34541;1267;20066;-73
2024/01/28 01:18:04;;;;;;;;;2079.50;2079.50;;;;;19.00;50.13;102610.94;34541;1267;19665;-73
2024/01/28 01:18:52;;;;;;;;;1300.50;1300.50;;;;;19.00;50.17;102610.14;34535;1259;19699;-73
2024/01/28 01:19:39;;;;;;;;;1558.67;1558.67;;;;;19.02;49.96;102614.02;34557;1267;20990;-73
2024/01/28 01:20:27;;;;;;;;;1303.00;1303.00;;;;;19.02;50.03;102611.80;34541;1254;21021;-73
2024/01/28 01:21:14;;;;;;;;;2079.00;2079.00;;;;;19.04;49.95;102615.56;34551;1267;20933;-73
2024/01/28 01:22:03;;;;;;;;;2337.50;2337.50;;;;;19.04;50.10;102612.34;34540;1267;19885;-73
2024/01/28 01:22:50;;;;;;;;;1303.00;1303.00;;;;;19.04;50.21;102614.39;34542;1251;21071;-71
2024/01/28 01:23:37;;;;;;;;;2079.00;2079.00;;;;;19.02;49.95;102613.69;34526;1267;21151;-70
2024/01/28 01:24:25;;;;;;;;;1300.50;1300.50;;;;;19.03;50.08;102615.06;34555;1267;21002;-71
2024/01/28 01:25:12;;;;;;;;;2079.00;2079.00;;;;;19.03;49.88;102618.11;34548;1267;19700;-71
2024/01/28 01:26:00;;;;;;;;;2337.50;2337.50;;;;;19.02;50.11;102616.02;34562;1267;20986;-71
2024/01/28 01:26:47;;;;;;;;;1045.67;1045.67;;;;;19.02;50.12;102616.02;34541;1252;21082;-71
2024/01/28 01:27:34;;;;;;;;;1044.67;1044.67;;;;;19.01;50.01;102619.04;34581;1267;21003;-72
2024/01/28 01:28:22;;;;;;;;;786.00;786.00;;;;;19.02;50.06;102620.37;34545;1253;21102;-72
2024/01/28 01:29:09;;;;;;;;;1561.33;1561.33;;;;;19.02;50.12;102621.67;34537;1267;20536;-72
2024/01/28 01:29:57;;;;;;;;;1560.00;1560.00;;;;;19.01;50.14;102619.11;34540;1267;19816;-72
2024/01/28 01:30:44;;;;;;;;;1044.33;1044.33;;;;;19.00;50.10;102623.02;34552;1267;19785;-72
2024/01/28 01:31:32;;;;;;;;;1043.00;1043.00;;;;;18.99;50.08;102618.08;34562;1267;19843;-72
2024/01/28 01:32:19;;;;;;;;;2078.00;2078.00;;;;;18.99;50.24;102622.05;34570;1259;22351;-72
2024/01/28 01:33:06;;;;;;;;;525.00;525.00;;;;;19.00;50.08;102620.50;34566;1267;21177;-72
2024/01/28 01:33:54;;;;;;;;;524.00;524.00;;;;;19.01;50.15;102624.30;34521;1267;20963;-72
2024/01/28 01:34:41;;;;;;;;;;;;;;;19.00;50.01;102624.55;34527;1267;20999;-72
2024/01/28 01:35:29;;;;;;;;;1303.25;1302.50;;;;;18.99;50.08;102622.05;34542;1267;20295;-72
2024/01/28 01:36:16;;;;;;;;;1821.00;1821.00;;;;;18.99;50.20;102623.77;34543;1267;19695;-72
2024/01/28 01:37:03;;;;;;;;;1390.00;1390.00;;;;;18.99;50.03;102621.55;34558;1267;19583;-72
2024/01/28 01:37:51;;;;;;;;;2078.00;2078.00;;;;;18.98;50.40;102620.55;34566;1267;19731;-72
2024/01/28 01:38:38;;;;;;;;;1216.67;1216.67;;;;;18.98;50.46;102621.00;34561;1267;20976;-72
2024/01/28 01:39:26;;;;;;;;;1048.00;1048.00;;;;;18.96;50.24;102624.44;34564;1252;19756;-72
2024/01/28 01:40:14;;;;;;;;;1563.00;1563.00;;;;;18.96;50.31;102621.05;34507;1267;19682;-71
2024/01/28 01:41:01;;;;;;;;;3141.00;3141.00;;;;;18.96;50.52;102622.56;34499;1267;19893;-71
2024/01/28 01:41:49;;;;;;;;;1824.00;1824.00;;;;;18.96;50.33;102623.27;34552;1252;19652;-71
2024/01/28 01:42:36;;;;;;;;;1306.00;1306.00;;;;;18.96;50.51;102623.27;34477;1253;21487;-72
2024/01/28 01:43:24;;;;;;;;;1045.00;1045.00;;;;;18.95;50.50;102625.66;34489;1268;21014;-72
2024/01/28 01:44:12;;;;;;;;;1306.00;1306.00;;;;;18.96;50.54;102623.81;34485;1269;21280;-72
2024/01/28 01:44:59;;;;;;;;;2081.50;2081.50;;;;;18.96;50.58;102624.11;34456;1268;20918;-72
2024/01/28 01:45:46;;;;;;;;;1048.00;1048.00;;;;;18.97;50.55;102622.98;34476;1269;20981;-72
2024/01/28 01:46:34;;;;;;;;;2082.00;2082.00;;;;;18.96;50.58;102619.09;34469;1268;19694;-71
2024/01/28 01:47:21;;;;;;;;;800.00;800.00;;;;;18.96;50.71;102623.90;34497;1269;19862;-71
2024/01/28 01:48:09;;;;;;;;;1824.00;1824.00;;;;;18.97;50.58;102621.52;34494;1253;21063;-72
2024/01/28 01:48:56;;;;;;;;;1567.33;1567.33;;;;;18.96;50.70;102623.23;34514;1260;21088;-72
2024/01/28 01:49:44;;;;;;;;;2359.50;2359.50;;;;;18.96;50.67;102622.14;34484;1268;21008;-72
2024/01/28 01:50:31;;;;;;;;;1825.00;1825.00;;;;;18.96;50.67;102621.17;34502;1268;19646;-72
2024/01/28 01:51:20;;;;;;;;;1566.00;1566.00;;;;;18.96;50.78;102619.42;34495;1268;20099;-72
2024/01/28 01:52:07;;;;;;;;;1569.00;1569.00;;;;;18.96;50.75;102619.05;34453;1253;21069;-72
2024/01/28 01:52:55;;;;;;;;;2082.00;2082.00;;;;;18.96;50.71;102620.89;34555;1253;19694;-71
2024/01/28 01:53:42;;;;;;;;;2081.00;2081.00;;;;;18.95;50.69;102618.05;34459;1253;21097;-72
2024/01/28 01:54:30;;;;;;;;;1568.00;1568.00;;;;;18.96;50.80;102620.39;34566;1268;21256;-72
2024/01/28 01:55:17;;;;;;;;;1311.50;1311.50;;;;;18.95;50.78;102616.96;34453;1254;21246;-71
2024/01/28 01:56:05;;;;;;;;;1310.00;1310.00;;;;;18.96;50.73;102615.88;34587;1269;20974;-72
2024/01/28 01:56:52;;;;;;;;;1567.50;1567.50;;;;;18.96;50.90;102619.64;34474;1253;21104;-72
2024/01/28 01:57:41;;;;;;;;;1054.00;1054.00;;;;;18.95;51.02;102620.23;34579;1268;20769;-72
2024/01/28 01:58:28;;;;;;;;;2361.50;2360.00;;;;;18.95;50.91;102617.51;34520;1253;21475;-72
2024/01/28 01:59:16;;;;;;;;;796.00;796.00;;;;;18.96;51.08;102618.05;34511;1268;21176;-71
2024/01/28 02:00:03;;;;;;;;;2089.00;2089.00;;;;;18.96;50.82;102621.31;34496;1268;21615;-71
2024/01/28 02:00:51;;;;;;;;;1312.50;1312.50;;;;;18.95;51.04;102624.61;34516;1268;20901;-70
2024/01/28 02:01:39;;;;;;;;;2089.00;2089.00;;;;;18.96;50.93;102624.19;34525;1268;19653;-72
2024/01/28 02:02:26;;;;;;;;;2086.00;2086.00;;;;;18.95;50.93;102623.86;34529;1268;21054;-72
2024/01/28 02:03:13;;;;;;;;;1053.00;1053.00;;;;;18.95;50.81;102627.58;34491;1268;21199;-71
2024/01/28 02:04:01;;;;;;;;;1568.00;1568.00;;;;;18.95;51.01;102625.90;34524;1268;21619;-72
2024/01/28 02:04:49;;;;;;;;;1567.50;1566.50;;;;;18.95;51.17;102623.52;34511;1268;19716;-71
2024/01/28 02:05:36;;;;;;;;;1307.50;1307.50;;;;;18.95;50.93;102622.64;34511;1268;21189;-72
2024/01/28 02:06:24;;;;;;;;;1313.50;1313.50;;;;;18.95;51.00;102624.61;34481;1268;19638;-72
2024/01/28 02:07:11;;;;;;;;;1334.50;1334.50;;;;;18.95;50.78;102623.81;34543;1253;20999;-71
2024/01/28 02:07:58;;;;;;;;;2634.00;2634.00;;;;;18.94;50.71;102626.08;34507;1252;22573;-71
2024/01/28 02:08:46;;;;;;;;;1321.50;1321.50;;;;;18.94;50.87;102624.23;34551;1268;19645;-72
2024/01/28 02:09:34;;;;;;;;;1054.00;1054.00;;;;;18.94;50.77;102626.37;34502;1268;22180;-72
2024/01/28 02:10:22;;;;;;;;;2352.00;2352.00;;;;;18.94;50.71;102625.69;34504;1268;21229;-72
2024/01/28 02:11:10;;;;;;;;;2118.50;2118.50;;;;;18.94;50.66;102627.45;34477;1253;21602;-72
2024/01/28 02:11:57;;;;;;;;;2354.50;2354.50;;;;;18.94;50.73;102627.70;34478;1269;20972;-72
2024/01/28 02:12:45;;;;;;;;;2108.00;2108.00;;;;;18.94;50.96;102630.17;34460;1268;19830;-72
2024/01/28 02:13:34;;;;;;;;;2389.50;2389.50;;;;;18.94;50.90;102627.99;34466;1268;22155;-72
2024/01/28 02:14:21;;;;;;;;;2097.00;2097.00;;;;;18.94;50.81;102629.63;34529;1268;19717;-72
2024/01/28 02:15:09;;;;;;;;;2113.00;2113.00;;;;;18.94;50.71;102627.49;34499;1269;21088;-72
2024/01/28 02:15:56;;;;;;;;;555.50;555.50;;;;;18.94;50.81;102630.46;34531;1268;20997;-72
2024/01/28 02:16:44;;;;;;;;;1579.00;1579.00;;;;;18.94;50.95;102634.80;34508;1268;20944;-72
2024/01/28 02:17:31;;;;;;;;;2095.00;2095.00;;;;;18.94;51.12;102632.38;34527;1268;19696;-72
2024/01/28 02:18:18;;;;;;;;;2095.00;2095.00;;;;;18.94;50.81;102632.05;34442;1268;19735;-72
2024/01/28 02:19:06;;;;;;;;;2355.00;2355.00;;;;;18.94;50.95;102633.71;34553;1253;21185;-72
2024/01/28 02:19:53;;;;;;;;;1834.25;1834.25;;;;;18.93;50.94;102632.14;34462;1268;21056;-72
2024/01/28 02:20:42;;;;;;;;;1583.00;1583.00;;;;;18.93;50.83;102633.02;34555;1268;19736;-72
2024/01/28 02:21:29;;;;;;;;;1840.50;1840.50;;;;;18.93;51.00;102633.19;34479;1268;21034;-72
2024/01/28 02:22:17;;;;;;;;;2353.50;2353.50;;;;;18.93;50.90;102628.66;34493;1268;21424;-72
2024/01/28 02:23:04;;;;;;;;;2613.00;2613.00;;;;;18.93;50.86;102629.46;34489;1252;20991;-72
2024/01/28 02:23:51;;;;;;;;;;;;;;;18.93;50.86;102628.58;34521;1253;21338;-71
2024/01/28 02:24:39;;;;;;;;;2097.00;2097.00;;;;;18.93;50.75;102628.75;34488;1268;20230;-71
2024/01/28 02:25:26;;;;;;;;;2095.00;2095.00;;;;;18.93;50.89;102631.76;34528;1268;19682;-71
2024/01/28 02:26:14;;;;;;;;;2642.50;2642.50;;;;;18.93;50.91;102630.55;34450;1269;22178;-71
2024/01/28 02:27:01;;;;;;;;;2124.00;2124.00;;;;;18.92;50.91;102628.45;34524;1253;21225;-71
2024/01/28 02:27:48;;;;;;;;;1327.00;1327.00;;;;;18.93;50.81;102632.59;34458;1269;19660;-72
2024/01/28 02:28:36;;;;;;;;;1579.00;1579.00;;;;;18.93;50.84;102630.26;34528;1254;21074;-71
2024/01/28 02:29:23;;;;;;;;;2097.00;2097.00;;;;;18.92;50.60;102627.75;34475;1253;21120;-72
2024/01/28 02:30:11;;;;;;;;;1320.00;1320.00;;;;;18.93;50.58;102631.84;34540;1260;19738;-70
2024/01/28 02:30:58;;;;;;;;;1316.50;1316.50;;;;;18.93;50.34;102631.93;34492;1268;21016;-72
2024/01/28 02:31:46;;;;;;;;;551.00;550.00;;;;;18.94;50.19;102634.22;34551;1268;19670;-72
2024/01/28 02:32:33;;;;;;;;;1052.00;1052.00;;;;;18.95;50.25;102631.67;34480;1268;20853;-72
2024/01/28 02:33:20;;;;;;;;;2084.00;2084.00;;;;;18.96;49.90;102631.17;34539;1253;21157;-72
2024/01/28 02:34:08;;;;;;;;;2094.00;2094.00;;;;;18.98;49.89;102631.45;34525;1267;19704;-71
2024/01/28 02:34:57;;;;;;;;;2348.75;2348.75;;;;;18.99;49.73;102631.38;34605;1251;21294;-71
2024/01/28 02:35:44;;;;;;;;;2610.00;2610.00;;;;;19.01;49.57;102628.36;34472;1268;21019;-72
2024/01/28 02:36:32;;;;;;;;;2116.00;2116.00;;;;;19.02;49.54;102624.77;34489;1253;21086;-71
2024/01/28 02:37:19;;;;;;;;;2355.50;2354.00;;;;;19.03;49.57;102627.27;34471;1253;21002;-71
2024/01/28 02:38:07;;;;;;;;;2870.50;2870.50;;;;;19.03;49.61;102628.52;34491;1269;21019;-71
2024/01/28 02:38:55;;;;;;;;;1831.00;1831.00;;;;;19.04;49.56;102628.30;34440;1269;21105;-71
2024/01/28 02:39:42;;;;;;;;;2345.50;2345.50;;;;;19.05;49.41;102628.13;34483;1268;21030;-71
2024/01/28 02:40:30;;;;;;;;;2351.00;2351.00;;;;;19.04;49.48;102628.77;34451;1269;22050;-72
2024/01/28 02:41:18;;;;;;;;;2258.67;2258.67;;;;;19.04;49.49;102628.98;34501;1254;21394;-71
2024/01/28 02:42:05;;;;;;;;;2082.00;2082.00;;;;;19.04;49.51;102624.30;34479;1268;21001;-72
2024/01/28 02:42:53;;;;;;;;;1825.00;1825.00;;;;;19.03;49.54;102626.02;34473;1269;21172;-71
2024/01/28 02:43:40;;;;;;;;;2857.00;2857.00;;;;;19.02;49.50;102621.45;34545;1268;22451;-73
2024/01/28 02:44:28;;;;;;;;;1070.00;1070.00;;;;;19.03;49.45;102621.38;34505;1253;22183;-71
2024/01/28 02:45:15;;;;;;;;;2084.00;2084.00;;;;;19.03;49.34;102621.91;34495;1268;19705;-72
2024/01/28 02:46:03;;;;;;;;;1566.00;1566.00;;;;;19.02;49.42;102623.20;34502;1253;21596;-72
2024/01/28 02:46:50;;;;;;;;;1818.00;1817.00;;;;;19.03;49.31;102623.34;34474;1268;21034;-72
2024/01/28 02:47:37;;;;;;;;;1297.50;1297.50;;;;;19.01;49.51;102618.49;34474;1268;19885;-71
2024/01/28 02:48:25;;;;;;;;;2334.50;2334.50;;;;;19.01;49.53;102620.84;34457;1268;20873;-71
2024/01/28 02:49:12;;;;;;;;;1816.50;1816.50;;;;;19.00;49.49;102617.25;34489;1253;21132;-71
2024/01/28 02:50:00;;;;;;;;;1294.75;1294.75;;;;;19.00;49.60;102619.63;34474;1269;19673;-71
2024/01/28 02:50:47;;;;;;;;;1558.00;1558.00;;;;;18.99;49.44;102613.48;34510;1252;21372;-71
2024/01/28 02:51:34;;;;;;;;;1811.50;1811.50;;;;;18.99;49.44;102612.48;34479;1268;21049;-71
2024/01/28 02:52:22;;;;;;;;;1558.00;1558.00;;;;;18.98;49.47;102614.58;34496;1253;22628;-71
2024/01/28 02:53:09;;;;;;;;;1038.50;1038.50;;;;;18.98;49.71;102613.91;34463;1269;21031;-72
2024/01/28 02:53:57;;;;;;;;;1039.67;1039.67;;;;;18.98;49.76;102610.31;34482;1268;21387;-71
2024/01/28 02:54:44;;;;;;;;;1300.75;1300.75;;;;;18.97;49.62;102612.78;34463;1268;21009;-72
2024/01/28 02:55:32;;;;;;;;;1302.00;1302.00;;;;;18.96;49.72;102611.86;34507;1268;21332;-72
2024/01/28 02:56:19;;;;;;;;;1046.00;1046.00;;;;;18.94;49.76;102611.33;34497;1268;20937;-72
2024/01/28 02:57:07;;;;;;;;;1557.67;1557.67;;;;;18.94;49.72;102614.50;34489;1260;21035;-72
2024/01/28 02:57:54;;;;;;;;;1299.50;1299.50;;;;;18.93;49.88;102611.00;34513;1252;19649;-72
2024/01/28 02:58:41;;;;;;;;;2328.00;2328.00;;;;;18.93;49.85;102612.96;34513;1268;21166;-71
2024/01/28 02:59:29;;;;;;;;;2594.00;2594.00;;;;;18.93;49.97;102612.99;34505;1268;19680;-72
2024/01/28 03:00:17;;;;;;;;;1898.67;1898.67;;;;;18.93;49.92;102613.67;34538;1268;19883;-72
2024/01/28 03:01:04;;;;;;;;;2421.33;2421.33;;;;;18.93;50.03;102617.48;34474;1268;20909;-72
2024/01/28 03:01:52;;;;;;;;;1559.00;1559.00;;;;;18.94;50.15;102616.25;34501;1268;21205;-70
2024/01/28 03:02:40;;;;;;;;;2605.50;2605.50;;;;;18.95;50.07;102615.46;34497;1269;21000;-71
2024/01/28 03:03:28;;;;;;;;;1040.00;1040.00;;;;;18.94;50.18;102616.25;34474;1252;21326;-71
2024/01/28 03:04:15;;;;;;;;;2337.00;2337.00;;;;;18.94;50.04;102616.34;34471;1269;21352;-71
2024/01/28 03:05:03;;;;;;;;;2079.50;2079.50;;;;;18.94;49.98;102615.96;34472;1268;21475;-71
2024/01/28 03:05:50;;;;;;;;;2078.50;2078.50;;;;;18.94;50.05;102623.73;34485;1253;21270;-71
2024/01/28 03:06:37;;;;;;;;;2087.50;2087.50;;;;;18.94;50.26;102623.31;34470;1269;21139;-71
2024/01/28 03:07:25;;;;;;;;;2080.33;2080.33;;;;;18.94;50.03;102626.20;34500;1269;19687;-72
2024/01/28 03:08:12;;;;;;;;;2079.33;2079.33;;;;;18.94;50.06;102623.15;34489;1253;21095;-72
2024/01/28 03:09:00;;;;;;;;;2105.00;2105.00;;;;;18.94;50.28;102622.81;34490;1268;21930;-72
2024/01/28 03:09:47;;;;;;;;;1577.00;1577.00;;;;;18.94;50.20;102622.82;34486;1268;20979;-72
2024/01/28 03:10:35;;;;;;;;;2616.00;2616.00;;;;;18.93;50.19;102624.16;34512;1268;21008;-72
2024/01/28 03:11:22;;;;;;;;;2098.00;2098.00;;;;;18.93;50.07;102626.36;34490;1253;19695;-72
2024/01/28 03:12:09;;;;;;;;;2371.00;2371.00;;;;;18.93;50.03;102627.50;34488;1268;19566;-72
2024/01/28 03:12:57;;;;;;;;;1849.50;1848.50;;;;;18.92;50.15;102628.08;34494;1253;21091;-72
2024/01/28 03:13:44;;;;;;;;;2642.00;2642.00;;;;;18.92;50.22;102626.08;34493;1268;20991;-72
2024/01/28 03:14:32;;;;;;;;;1746.67;1746.67;;;;;18.93;50.15;102630.59;34495;1268;19854;-72
2024/01/28 03:15:19;;;;;;;;;2095.00;2095.00;;;;;18.93;50.23;102630.96;34494;1260;21073;-72
2024/01/28 03:16:07;;;;;;;;;2083.50;2083.50;;;;;18.93;50.38;102632.94;34502;1268;21000;-72
2024/01/28 03:16:54;;;;;;;;;1566.00;1566.00;;;;;18.93;50.31;102630.76;34516;1253;21022;-72
2024/01/28 03:17:41;;;;;;;;;2854.00;2854.00;;;;;18.93;50.19;102633.84;34511;1268;21008;-72
2024/01/28 03:18:29;;;;;;;;;1309.50;1309.50;;;;;18.92;50.38;102632.47;34517;1268;19676;-72
2024/01/28 03:19:17;;;;;;;;;2337.50;2337.50;;;;;18.93;50.12;102632.84;34508;1268;19992;-73
2024/01/28 03:20:04;;;;;;;;;2596.00;2596.00;;;;;18.93;50.16;102633.27;34531;1268;19574;-73
2024/01/28 03:20:52;;;;;;;;;1042.00;1042.00;;;;;18.93;50.45;102633.64;34493;1268;21036;-74
2024/01/28 03:21:39;;;;;;;;;1560.00;1560.00;;;;;18.93;50.29;102634.77;34511;1260;22751;-74
2024/01/28 03:22:27;;;;;;;;;1819.50;1819.50;;;;;18.93;50.35;102635.65;34510;1252;21441;-72
2024/01/28 03:23:14;;;;;;;;;1040.00;1040.00;;;;;18.92;50.18;102635.70;34523;1268;21209;-73
2024/01/28 03:24:02;;;;;;;;;1305.50;1305.50;;;;;18.93;50.10;102640.03;34498;1268;19655;-73
2024/01/28 03:24:49;;;;;;;;;1816.00;1816.00;;;;;18.92;50.21;102641.33;34507;1269;21212;-73
2024/01/28 03:25:37;;;;;;;;;2336.00;2336.00;;;;;18.92;50.21;102645.00;34470;1253;19661;-73
2024/01/28 03:26:24;;;;;;;;;2335.00;2335.00;;;;;18.93;50.39;102648.17;34523;1259;22162;-73